sensor_id;sensor_type;location;lat;lon;timestamp;temperature;humidity
23114;DHT22;11726;50.122;8.832;2022-07-03T00:01:55;19.40;99.90
23114;DHT22;11726;50.122;8.832;2022-07-03T00:04:22;19.50;99.90
23114;DHT22;11726;50.122;8.832;2022-07-03T00:06:49;19.60;99.90
23114;DHT22;11726;50.122;8.832;2022-07-03T00:09:16;19.50;99.90
23114;DHT22;11726;50.122;8.832;2022-07-03T00:11:44;19.40;99.90
23114;DHT22;11726;50.122;8.832;2022-07-03T00:14:10;19.40;99.90
23114;DHT22;11726;50.122;8.832;2022-07-03T00:16:37;19.30;99.90
23114;DHT22;11726;50.122;8.832;2022-07-03T00:19:04;19.30;99.90
23114;DHT22;11726;50.122;8.832;2022-07-03T00:21:45;19.10;99.90
23114;DHT22;11726;50.122;8.832;2022-07-03T00:24:24;19.10;99.90
23114;DHT22;11726;50.122;8.832;2022-07-03T00:26:53;19.10;99.90
23114;DHT22;11726;50.122;8.832;2022-07-03T00:29:21;19.00;99.90
23114;DHT22;11726;50.122;8.832;2022-07-03T00:31:49;18.90;99.90
23114;DHT22;11726;50.122;8.832;2022-07-03T00:34:17;18.80;99.90
23114;DHT22;11726;50.122;8.832;2022-07-03T00:36:46;18.80;99.90
23114;DHT22;11726;50.122;8.832;2022-07-03T00:39:13;18.90;99.90
23114;DHT22;11726;50.122;8.832;2022-07-03T00:41:41;19.00;99.90
23114;DHT22;11726;50.122;8.832;2022-07-03T00:44:09;19.00;99.90
23114;DHT22;11726;50.122;8.832;2022-07-03T00:46:38;18.90;99.90
23114;DHT22;11726;50.122;8.832;2022-07-03T00:49:06;18.80;99.90
23114;DHT22;11726;50.122;8.832;2022-07-03T00:51:35;18.90;99.90
23114;DHT22;11726;50.122;8.832;2022-07-03T00:54:04;18.80;99.90
23114;DHT22;11726;50.122;8.832;2022-07-03T00:56:31;18.70;99.90
23114;DHT22;11726;50.122;8.832;2022-07-03T00:58:59;18.60;99.90
23114;DHT22;11726;50.122;8.832;2022-07-03T01:01:31;18.60;99.90
23114;DHT22;11726;50.122;8.832;2022-07-03T01:06:36;18.60;99.90
23114;DHT22;11726;50.122;8.832;2022-07-03T01:09:06;18.60;99.90
23114;DHT22;11726;50.122;8.832;2022-07-03T01:11:48;18.40;99.90
23114;DHT22;11726;50.122;8.832;2022-07-03T01:17:03;18.50;99.90
23114;DHT22;11726;50.122;8.832;2022-07-03T01:19:41;18.60;99.90
23114;DHT22;11726;50.122;8.832;2022-07-03T01:22:31;18.50;99.90
23114;DHT22;11726;50.122;8.832;2022-07-03T01:25:16;18.50;99.90
23114;DHT22;11726;50.122;8.832;2022-07-03T01:27:56;18.40;99.90
23114;DHT22;11726;50.122;8.832;2022-07-03T01:30:31;18.30;99.90
23114;DHT22;11726;50.122;8.832;2022-07-03T01:33:05;18.30;99.90
23114;DHT22;11726;50.122;8.832;2022-07-03T01:35:38;18.30;99.90
23114;DHT22;11726;50.122;8.832;2022-07-03T01:38:10;18.30;99.90
23114;DHT22;11726;50.122;8.832;2022-07-03T01:40:39;18.30;99.90
23114;DHT22;11726;50.122;8.832;2022-07-03T01:43:08;18.40;99.90
23114;DHT22;11726;50.122;8.832;2022-07-03T01:45:42;18.40;99.90
23114;DHT22;11726;50.122;8.832;2022-07-03T01:48:11;18.40;99.90
23114;DHT22;11726;50.122;8.832;2022-07-03T01:50:39;18.40;99.90
23114;DHT22;11726;50.122;8.832;2022-07-03T01:53:09;18.40;99.90
23114;DHT22;11726;50.122;8.832;2022-07-03T01:55:38;18.40;99.90
23114;DHT22;11726;50.122;8.832;2022-07-03T01:58:05;18.20;99.90
23114;DHT22;11726;50.122;8.832;2022-07-03T02:03:25;18.20;99.90
23114;DHT22;11726;50.122;8.832;2022-07-03T02:06:05;18.20;99.90
23114;DHT22;11726;50.122;8.832;2022-07-03T02:08:59;18.10;99.90
23114;DHT22;11726;50.122;8.832;2022-07-03T02:11:47;17.90;99.90
23114;DHT22;11726;50.122;8.832;2022-07-03T02:14:19;17.90;99.90
23114;DHT22;11726;50.122;8.832;2022-07-03T02:19:16;18.00;99.90
23114;DHT22;11726;50.122;8.832;2022-07-03T02:21:52;17.90;99.90
23114;DHT22;11726;50.122;8.832;2022-07-03T02:24:22;17.90;99.90
23114;DHT22;11726;50.122;8.832;2022-07-03T02:27:02;17.80;99.90
23114;DHT22;11726;50.122;8.832;2022-07-03T02:29:59;17.80;99.90
23114;DHT22;11726;50.122;8.832;2022-07-03T02:32:32;17.80;99.90
23114;DHT22;11726;50.122;8.832;2022-07-03T02:35:08;17.80;99.90
23114;DHT22;11726;50.122;8.832;2022-07-03T02:37:50;17.70;99.90
23114;DHT22;11726;50.122;8.832;2022-07-03T02:43:23;17.50;99.90
23114;DHT22;11726;50.122;8.832;2022-07-03T02:46:07;17.70;99.90
23114;DHT22;11726;50.122;8.832;2022-07-03T02:51:52;17.50;99.90
23114;DHT22;11726;50.122;8.832;2022-07-03T02:54:24;17.50;99.90
23114;DHT22;11726;50.122;8.832;2022-07-03T02:57:07;17.40;99.90
23114;DHT22;11726;50.122;8.832;2022-07-03T02:59:52;17.40;99.90
23114;DHT22;11726;50.122;8.832;2022-07-03T03:05:20;17.30;99.90
23114;DHT22;11726;50.122;8.832;2022-07-03T03:08:21;17.20;99.90
23114;DHT22;11726;50.122;8.832;2022-07-03T03:10:50;17.10;99.90
23114;DHT22;11726;50.122;8.832;2022-07-03T03:13:18;17.10;99.90
23114;DHT22;11726;50.122;8.832;2022-07-03T03:15:57;16.90;99.90
23114;DHT22;11726;50.122;8.832;2022-07-03T03:18:27;16.80;99.90
23114;DHT22;11726;50.122;8.832;2022-07-03T03:20:59;16.80;99.90
23114;DHT22;11726;50.122;8.832;2022-07-03T03:23:48;16.90;99.90
23114;DHT22;11726;50.122;8.832;2022-07-03T03:26:20;16.90;99.90
23114;DHT22;11726;50.122;8.832;2022-07-03T03:28:48;16.80;99.90
23114;DHT22;11726;50.122;8.832;2022-07-03T03:31:16;16.80;99.90
23114;DHT22;11726;50.122;8.832;2022-07-03T03:33:47;16.80;99.90
23114;DHT22;11726;50.122;8.832;2022-07-03T03:36:15;16.80;99.90
23114;DHT22;11726;50.122;8.832;2022-07-03T03:38:44;16.90;99.90
23114;DHT22;11726;50.122;8.832;2022-07-03T03:41:11;16.80;99.90
23114;DHT22;11726;50.122;8.832;2022-07-03T03:43:43;16.80;99.90
23114;DHT22;11726;50.122;8.832;2022-07-03T03:46:10;16.90;99.90
23114;DHT22;11726;50.122;8.832;2022-07-03T03:48:37;17.00;99.90
23114;DHT22;11726;50.122;8.832;2022-07-03T03:51:04;16.80;99.90
23114;DHT22;11726;50.122;8.832;2022-07-03T03:53:31;16.70;99.90
23114;DHT22;11726;50.122;8.832;2022-07-03T03:58:30;17.00;99.90
23114;DHT22;11726;50.122;8.832;2022-07-03T04:00:58;16.90;99.90
23114;DHT22;11726;50.122;8.832;2022-07-03T04:03:25;16.80;99.90
23114;DHT22;11726;50.122;8.832;2022-07-03T04:05:53;16.80;99.90
23114;DHT22;11726;50.122;8.832;2022-07-03T04:08:21;16.80;99.90
23114;DHT22;11726;50.122;8.832;2022-07-03T04:10:48;16.80;99.90
23114;DHT22;11726;50.122;8.832;2022-07-03T04:13:16;16.90;99.90
23114;DHT22;11726;50.122;8.832;2022-07-03T04:15:43;17.00;99.90
23114;DHT22;11726;50.122;8.832;2022-07-03T04:18:09;17.10;99.90
23114;DHT22;11726;50.122;8.832;2022-07-03T04:20:36;17.20;99.90
23114;DHT22;11726;50.122;8.832;2022-07-03T04:23:03;17.20;99.90
23114;DHT22;11726;50.122;8.832;2022-07-03T04:25:30;17.30;99.90
23114;DHT22;11726;50.122;8.832;2022-07-03T04:27:57;17.30;99.90
23114;DHT22;11726;50.122;8.832;2022-07-03T04:30:43;17.20;99.90
23114;DHT22;11726;50.122;8.832;2022-07-03T04:33:10;17.40;99.90
23114;DHT22;11726;50.122;8.832;2022-07-03T04:35:37;17.40;99.90
23114;DHT22;11726;50.122;8.832;2022-07-03T04:38:04;17.50;99.90
23114;DHT22;11726;50.122;8.832;2022-07-03T04:40:31;17.50;99.90
23114;DHT22;11726;50.122;8.832;2022-07-03T04:42:58;17.60;99.90
23114;DHT22;11726;50.122;8.832;2022-07-03T04:45:24;17.80;99.90
23114;DHT22;11726;50.122;8.832;2022-07-03T04:47:51;17.70;99.90
23114;DHT22;11726;50.122;8.832;2022-07-03T04:50:18;17.70;99.90
23114;DHT22;11726;50.122;8.832;2022-07-03T04:52:44;17.80;99.90
23114;DHT22;11726;50.122;8.832;2022-07-03T04:55:11;18.00;99.90
23114;DHT22;11726;50.122;8.832;2022-07-03T04:57:38;18.30;99.90
23114;DHT22;11726;50.122;8.832;2022-07-03T05:00:06;18.30;99.90
23114;DHT22;11726;50.122;8.832;2022-07-03T05:02:33;18.30;99.90
23114;DHT22;11726;50.122;8.832;2022-07-03T05:05:00;18.20;99.90
23114;DHT22;11726;50.122;8.832;2022-07-03T05:07:26;18.20;99.90
23114;DHT22;11726;50.122;8.832;2022-07-03T05:09:53;18.30;99.90
23114;DHT22;11726;50.122;8.832;2022-07-03T05:12:20;18.30;99.90
23114;DHT22;11726;50.122;8.832;2022-07-03T05:14:46;18.40;99.90
23114;DHT22;11726;50.122;8.832;2022-07-03T05:17:13;18.40;99.90
23114;DHT22;11726;50.122;8.832;2022-07-03T05:19:40;18.40;99.90
23114;DHT22;11726;50.122;8.832;2022-07-03T05:22:07;18.30;99.90
23114;DHT22;11726;50.122;8.832;2022-07-03T05:24:34;18.30;99.90
23114;DHT22;11726;50.122;8.832;2022-07-03T05:27:00;18.40;99.90
23114;DHT22;11726;50.122;8.832;2022-07-03T05:29:27;18.30;99.90
23114;DHT22;11726;50.122;8.832;2022-07-03T05:31:54;18.40;99.90
23114;DHT22;11726;50.122;8.832;2022-07-03T05:34:21;18.50;99.90
23114;DHT22;11726;50.122;8.832;2022-07-03T05:36:47;18.50;99.90
23114;DHT22;11726;50.122;8.832;2022-07-03T05:39:14;18.40;99.90
23114;DHT22;11726;50.122;8.832;2022-07-03T05:42:00;18.50;99.90
23114;DHT22;11726;50.122;8.832;2022-07-03T05:44:27;18.60;99.90
23114;DHT22;11726;50.122;8.832;2022-07-03T05:46:53;18.70;99.90
23114;DHT22;11726;50.122;8.832;2022-07-03T05:49:20;18.90;99.90
23114;DHT22;11726;50.122;8.832;2022-07-03T05:51:47;18.90;99.90
23114;DHT22;11726;50.122;8.832;2022-07-03T05:54:13;19.00;99.90
23114;DHT22;11726;50.122;8.832;2022-07-03T05:56:40;19.00;99.90
23114;DHT22;11726;50.122;8.832;2022-07-03T05:59:07;19.10;99.90
23114;DHT22;11726;50.122;8.832;2022-07-03T06:01:33;19.30;99.90
23114;DHT22;11726;50.122;8.832;2022-07-03T06:04:00;19.40;99.90
23114;DHT22;11726;50.122;8.832;2022-07-03T06:06:27;19.50;99.90
23114;DHT22;11726;50.122;8.832;2022-07-03T06:08:53;19.60;99.90
23114;DHT22;11726;50.122;8.832;2022-07-03T06:11:20;19.80;99.90
23114;DHT22;11726;50.122;8.832;2022-07-03T06:13:47;19.90;99.90
23114;DHT22;11726;50.122;8.832;2022-07-03T06:16:14;20.00;99.90
23114;DHT22;11726;50.122;8.832;2022-07-03T06:18:41;20.20;99.90
23114;DHT22;11726;50.122;8.832;2022-07-03T06:21:08;20.30;99.90
23114;DHT22;11726;50.122;8.832;2022-07-03T06:23:35;20.50;99.90
23114;DHT22;11726;50.122;8.832;2022-07-03T06:26:12;20.50;99.90
23114;DHT22;11726;50.122;8.832;2022-07-03T06:28:39;20.70;99.90
23114;DHT22;11726;50.122;8.832;2022-07-03T06:31:06;20.90;99.90
23114;DHT22;11726;50.122;8.832;2022-07-03T06:33:32;20.90;99.90
23114;DHT22;11726;50.122;8.832;2022-07-03T06:35:59;21.10;99.90
23114;DHT22;11726;50.122;8.832;2022-07-03T06:38:26;21.30;99.90
23114;DHT22;11726;50.122;8.832;2022-07-03T06:40:52;21.50;99.90
23114;DHT22;11726;50.122;8.832;2022-07-03T06:43:19;21.60;99.90
23114;DHT22;11726;50.122;8.832;2022-07-03T06:45:46;21.60;99.90
23114;DHT22;11726;50.122;8.832;2022-07-03T06:48:12;21.70;99.90
23114;DHT22;11726;50.122;8.832;2022-07-03T06:50:39;21.80;99.90
23114;DHT22;11726;50.122;8.832;2022-07-03T06:53:06;21.80;99.90
23114;DHT22;11726;50.122;8.832;2022-07-03T06:55:33;21.90;99.90
23114;DHT22;11726;50.122;8.832;2022-07-03T06:57:59;22.00;99.90
23114;DHT22;11726;50.122;8.832;2022-07-03T07:00:26;22.20;99.90
23114;DHT22;11726;50.122;8.832;2022-07-03T07:02:52;22.30;99.90
23114;DHT22;11726;50.122;8.832;2022-07-03T07:05:24;22.50;99.90
23114;DHT22;11726;50.122;8.832;2022-07-03T07:07:51;22.50;99.90
23114;DHT22;11726;50.122;8.832;2022-07-03T07:10:18;22.50;99.90
23114;DHT22;11726;50.122;8.832;2022-07-03T07:12:44;22.70;99.90
23114;DHT22;11726;50.122;8.832;2022-07-03T07:15:11;22.60;99.90
23114;DHT22;11726;50.122;8.832;2022-07-03T07:17:37;22.50;99.90
23114;DHT22;11726;50.122;8.832;2022-07-03T07:20:05;22.70;99.90
23114;DHT22;11726;50.122;8.832;2022-07-03T07:22:31;22.90;99.90
23114;DHT22;11726;50.122;8.832;2022-07-03T07:24:58;22.90;99.90
23114;DHT22;11726;50.122;8.832;2022-07-03T07:27:24;23.00;99.90
23114;DHT22;11726;50.122;8.832;2022-07-03T07:29:51;23.20;99.90
23114;DHT22;11726;50.122;8.832;2022-07-03T07:32:18;23.30;99.90
23114;DHT22;11726;50.122;8.832;2022-07-03T07:34:44;23.50;99.90
23114;DHT22;11726;50.122;8.832;2022-07-03T07:37:11;23.50;99.90
23114;DHT22;11726;50.122;8.832;2022-07-03T07:39:38;23.70;99.90
23114;DHT22;11726;50.122;8.832;2022-07-03T07:42:04;23.80;99.90
23114;DHT22;11726;50.122;8.832;2022-07-03T07:44:31;23.70;99.90
23114;DHT22;11726;50.122;8.832;2022-07-03T07:46:58;23.90;99.90
23114;DHT22;11726;50.122;8.832;2022-07-03T07:49:25;23.90;99.90
23114;DHT22;11726;50.122;8.832;2022-07-03T07:51:51;25.20;99.90
23114;DHT22;11726;50.122;8.832;2022-07-03T07:54:18;25.90;97.20
23114;DHT22;11726;50.122;8.832;2022-07-03T07:56:44;25.70;96.80
23114;DHT22;11726;50.122;8.832;2022-07-03T07:59:11;25.80;97.70
23114;DHT22;11726;50.122;8.832;2022-07-03T08:01:38;26.10;95.70
23114;DHT22;11726;50.122;8.832;2022-07-03T08:04:23;26.20;96.10
23114;DHT22;11726;50.122;8.832;2022-07-03T08:07:09;26.40;96.80
23114;DHT22;11726;50.122;8.832;2022-07-03T08:09:35;26.50;95.50
23114;DHT22;11726;50.122;8.832;2022-07-03T08:12:02;26.70;95.10
23114;DHT22;11726;50.122;8.832;2022-07-03T08:14:29;26.70;94.90
23114;DHT22;11726;50.122;8.832;2022-07-03T08:16:55;26.40;93.90
23114;DHT22;11726;50.122;8.832;2022-07-03T08:19:22;26.40;94.40
23114;DHT22;11726;50.122;8.832;2022-07-03T08:21:49;26.60;95.00
23114;DHT22;11726;50.122;8.832;2022-07-03T08:24:16;26.80;93.50
23114;DHT22;11726;50.122;8.832;2022-07-03T08:26:42;26.90;92.10
23114;DHT22;11726;50.122;8.832;2022-07-03T08:29:09;27.10;92.70
23114;DHT22;11726;50.122;8.832;2022-07-03T08:31:36;27.20;92.40
23114;DHT22;11726;50.122;8.832;2022-07-03T08:34:02;27.20;93.00
23114;DHT22;11726;50.122;8.832;2022-07-03T08:36:29;27.30;92.00
23114;DHT22;11726;50.122;8.832;2022-07-03T08:38:56;26.60;92.60
23114;DHT22;11726;50.122;8.832;2022-07-03T08:41:23;26.60;92.00
23114;DHT22;11726;50.122;8.832;2022-07-03T08:43:52;26.60;92.30
23114;DHT22;11726;50.122;8.832;2022-07-03T08:46:20;26.90;91.80
23114;DHT22;11726;50.122;8.832;2022-07-03T08:48:47;27.30;91.70
23114;DHT22;11726;50.122;8.832;2022-07-03T08:51:17;26.60;93.00
23114;DHT22;11726;50.122;8.832;2022-07-03T08:53:47;26.90;93.20
23114;DHT22;11726;50.122;8.832;2022-07-03T08:56:13;27.20;91.80
23114;DHT22;11726;50.122;8.832;2022-07-03T08:58:40;27.30;91.00
23114;DHT22;11726;50.122;8.832;2022-07-03T09:01:09;27.60;90.30
23114;DHT22;11726;50.122;8.832;2022-07-03T09:03:37;27.30;88.30
23114;DHT22;11726;50.122;8.832;2022-07-03T09:06:05;27.60;89.20
23114;DHT22;11726;50.122;8.832;2022-07-03T09:08:32;27.50;89.40
23114;DHT22;11726;50.122;8.832;2022-07-03T09:11:00;28.00;88.70
23114;DHT22;11726;50.122;8.832;2022-07-03T09:13:28;28.00;86.40
23114;DHT22;11726;50.122;8.832;2022-07-03T09:15:55;28.10;86.60
23114;DHT22;11726;50.122;8.832;2022-07-03T09:18:42;27.40;85.00
23114;DHT22;11726;50.122;8.832;2022-07-03T09:21:09;27.60;88.60
23114;DHT22;11726;50.122;8.832;2022-07-03T09:23:40;27.50;87.80
23114;DHT22;11726;50.122;8.832;2022-07-03T09:26:15;28.00;84.00
23114;DHT22;11726;50.122;8.832;2022-07-03T09:31:16;28.00;85.20
23114;DHT22;11726;50.122;8.832;2022-07-03T09:34:00;28.30;82.50
23114;DHT22;11726;50.122;8.832;2022-07-03T09:36:48;28.40;78.40
23114;DHT22;11726;50.122;8.832;2022-07-03T09:39:24;28.70;77.60
23114;DHT22;11726;50.122;8.832;2022-07-03T09:42:06;28.30;76.60
23114;DHT22;11726;50.122;8.832;2022-07-03T09:44:41;28.30;77.00
23114;DHT22;11726;50.122;8.832;2022-07-03T09:47:23;27.80;76.60
23114;DHT22;11726;50.122;8.832;2022-07-03T09:49:56;28.00;77.00
23114;DHT22;11726;50.122;8.832;2022-07-03T09:55:00;28.60;77.70
23114;DHT22;11726;50.122;8.832;2022-07-03T09:57:30;28.80;74.90
23114;DHT22;11726;50.122;8.832;2022-07-03T10:03:01;28.50;73.40
23114;DHT22;11726;50.122;8.832;2022-07-03T10:05:31;29.00;75.10
23114;DHT22;11726;50.122;8.832;2022-07-03T10:10:36;29.80;72.40
23114;DHT22;11726;50.122;8.832;2022-07-03T10:13:04;29.80;72.30
23114;DHT22;11726;50.122;8.832;2022-07-03T10:15:33;29.20;68.60
23114;DHT22;11726;50.122;8.832;2022-07-03T10:18:10;28.70;69.90
23114;DHT22;11726;50.122;8.832;2022-07-03T10:23:09;28.30;72.70
23114;DHT22;11726;50.122;8.832;2022-07-03T10:25:41;28.40;69.00
23114;DHT22;11726;50.122;8.832;2022-07-03T10:28:09;28.30;68.10
23114;DHT22;11726;50.122;8.832;2022-07-03T10:30:37;28.30;66.80
23114;DHT22;11726;50.122;8.832;2022-07-03T10:33:03;28.10;67.70
23114;DHT22;11726;50.122;8.832;2022-07-03T10:35:34;28.00;64.80
23114;DHT22;11726;50.122;8.832;2022-07-03T10:40:40;28.20;65.80
23114;DHT22;11726;50.122;8.832;2022-07-03T10:43:29;28.40;65.90
23114;DHT22;11726;50.122;8.832;2022-07-03T10:46:22;28.20;66.80
23114;DHT22;11726;50.122;8.832;2022-07-03T10:48:52;28.50;64.90
23114;DHT22;11726;50.122;8.832;2022-07-03T10:51:19;28.50;65.40
23114;DHT22;11726;50.122;8.832;2022-07-03T10:53:47;28.50;67.60
23114;DHT22;11726;50.122;8.832;2022-07-03T10:56:14;28.80;65.00
23114;DHT22;11726;50.122;8.832;2022-07-03T10:58:59;29.00;64.10
23114;DHT22;11726;50.122;8.832;2022-07-03T11:01:30;29.10;63.30
23114;DHT22;11726;50.122;8.832;2022-07-03T11:03:58;29.20;63.60
23114;DHT22;11726;50.122;8.832;2022-07-03T11:09:11;29.30;62.50
23114;DHT22;11726;50.122;8.832;2022-07-03T11:11:43;29.40;62.90
23114;DHT22;11726;50.122;8.832;2022-07-03T11:14:22;29.60;63.30
23114;DHT22;11726;50.122;8.832;2022-07-03T11:16:49;29.60;61.70
23114;DHT22;11726;50.122;8.832;2022-07-03T11:19:36;29.70;59.50
23114;DHT22;11726;50.122;8.832;2022-07-03T11:22:06;29.70;59.70
23114;DHT22;11726;50.122;8.832;2022-07-03T11:24:41;29.80;59.10
23114;DHT22;11726;50.122;8.832;2022-07-03T11:27:16;30.00;60.10
23114;DHT22;11726;50.122;8.832;2022-07-03T11:29:57;30.10;58.50
23114;DHT22;11726;50.122;8.832;2022-07-03T11:35:45;30.00;59.30
23114;DHT22;11726;50.122;8.832;2022-07-03T11:38:26;29.90;59.20
23114;DHT22;11726;50.122;8.832;2022-07-03T11:40:54;30.30;59.10
23114;DHT22;11726;50.122;8.832;2022-07-03T11:43:21;30.40;59.50
23114;DHT22;11726;50.122;8.832;2022-07-03T11:45:49;30.20;58.60
23114;DHT22;11726;50.122;8.832;2022-07-03T11:48:18;30.40;57.30
23114;DHT22;11726;50.122;8.832;2022-07-03T11:50:47;30.40;55.00
23114;DHT22;11726;50.122;8.832;2022-07-03T11:58:23;30.80;55.10
23114;DHT22;11726;50.122;8.832;2022-07-03T12:00:50;30.60;54.20
23114;DHT22;11726;50.122;8.832;2022-07-03T12:03:25;30.50;54.60
23114;DHT22;11726;50.122;8.832;2022-07-03T12:05:53;30.40;54.00
23114;DHT22;11726;50.122;8.832;2022-07-03T12:08:28;30.50;54.90
23114;DHT22;11726;50.122;8.832;2022-07-03T12:11:03;30.80;54.80
23114;DHT22;11726;50.122;8.832;2022-07-03T12:13:32;31.30;53.70
23114;DHT22;11726;50.122;8.832;2022-07-03T12:16:13;30.80;53.50
23114;DHT22;11726;50.122;8.832;2022-07-03T12:18:53;30.50;54.00
23114;DHT22;11726;50.122;8.832;2022-07-03T12:21:22;30.90;54.90
23114;DHT22;11726;50.122;8.832;2022-07-03T12:23:54;30.90;55.20
23114;DHT22;11726;50.122;8.832;2022-07-03T12:26:32;31.10;54.60
23114;DHT22;11726;50.122;8.832;2022-07-03T12:29:00;31.20;52.70
23114;DHT22;11726;50.122;8.832;2022-07-03T12:31:28;31.00;52.90
23114;DHT22;11726;50.122;8.832;2022-07-03T12:33:58;30.80;54.20
23114;DHT22;11726;50.122;8.832;2022-07-03T12:36:25;30.50;54.50
23114;DHT22;11726;50.122;8.832;2022-07-03T12:38:53;30.60;54.90
23114;DHT22;11726;50.122;8.832;2022-07-03T12:41:22;31.20;55.60
23114;DHT22;11726;50.122;8.832;2022-07-03T12:43:50;31.80;54.90
23114;DHT22;11726;50.122;8.832;2022-07-03T12:46:33;31.70;53.00
23114;DHT22;11726;50.122;8.832;2022-07-03T12:49:08;31.70;52.10
23114;DHT22;11726;50.122;8.832;2022-07-03T12:51:46;31.80;52.40
23114;DHT22;11726;50.122;8.832;2022-07-03T12:54:33;32.20;52.40
23114;DHT22;11726;50.122;8.832;2022-07-03T12:57:10;32.10;48.70
23114;DHT22;11726;50.122;8.832;2022-07-03T13:00:09;31.80;48.60
23114;DHT22;11726;50.122;8.832;2022-07-03T13:02:37;32.00;47.70
23114;DHT22;11726;50.122;8.832;2022-07-03T13:05:22;32.00;48.10
23114;DHT22;11726;50.122;8.832;2022-07-03T13:07:55;32.50;47.40
23114;DHT22;11726;50.122;8.832;2022-07-03T13:10:23;32.20;46.20
23114;DHT22;11726;50.122;8.832;2022-07-03T13:12:52;31.30;47.80
23114;DHT22;11726;50.122;8.832;2022-07-03T13:15:19;31.00;48.70
23114;DHT22;11726;50.122;8.832;2022-07-03T13:20:23;30.50;49.50
23114;DHT22;11726;50.122;8.832;2022-07-03T13:22:51;30.50;50.80
23114;DHT22;11726;50.122;8.832;2022-07-03T13:25:18;30.30;50.70
23114;DHT22;11726;50.122;8.832;2022-07-03T13:27:45;30.40;51.80
23114;DHT22;11726;50.122;8.832;2022-07-03T13:30:16;31.20;52.10
23114;DHT22;11726;50.122;8.832;2022-07-03T13:32:43;31.90;50.00
23114;DHT22;11726;50.122;8.832;2022-07-03T13:35:11;32.60;47.80
23114;DHT22;11726;50.122;8.832;2022-07-03T13:37:37;32.70;46.40
23114;DHT22;11726;50.122;8.832;2022-07-03T13:40:05;32.40;45.20
23114;DHT22;11726;50.122;8.832;2022-07-03T13:42:32;31.90;46.50
23114;DHT22;11726;50.122;8.832;2022-07-03T13:44:59;32.00;46.40
23114;DHT22;11726;50.122;8.832;2022-07-03T13:47:25;31.70;45.90
23114;DHT22;11726;50.122;8.832;2022-07-03T13:49:52;31.70;46.90
23114;DHT22;11726;50.122;8.832;2022-07-03T13:52:19;32.20;47.00
23114;DHT22;11726;50.122;8.832;2022-07-03T13:54:45;32.30;45.80
23114;DHT22;11726;50.122;8.832;2022-07-03T13:57:14;32.30;46.50
23114;DHT22;11726;50.122;8.832;2022-07-03T13:59:41;32.10;46.60
23114;DHT22;11726;50.122;8.832;2022-07-03T14:02:08;32.30;45.40
23114;DHT22;11726;50.122;8.832;2022-07-03T14:04:35;32.80;45.40
23114;DHT22;11726;50.122;8.832;2022-07-03T14:07:02;33.60;45.20
23114;DHT22;11726;50.122;8.832;2022-07-03T14:09:28;33.40;44.10
23114;DHT22;11726;50.122;8.832;2022-07-03T14:11:55;33.20;44.60
23114;DHT22;11726;50.122;8.832;2022-07-03T14:14:22;32.70;44.10
23114;DHT22;11726;50.122;8.832;2022-07-03T14:16:49;32.70;45.80
23114;DHT22;11726;50.122;8.832;2022-07-03T14:19:17;32.60;44.50
23114;DHT22;11726;50.122;8.832;2022-07-03T14:21:44;32.00;45.60
23114;DHT22;11726;50.122;8.832;2022-07-03T14:24:11;32.40;46.40
23114;DHT22;11726;50.122;8.832;2022-07-03T14:26:38;33.30;45.90
23114;DHT22;11726;50.122;8.832;2022-07-03T14:29:23;33.80;44.10
23114;DHT22;11726;50.122;8.832;2022-07-03T14:32:08;34.10;44.50
23114;DHT22;11726;50.122;8.832;2022-07-03T14:34:54;34.00;43.60
23114;DHT22;11726;50.122;8.832;2022-07-03T14:37:21;33.30;43.90
23114;DHT22;11726;50.122;8.832;2022-07-03T14:39:49;33.10;44.00
23114;DHT22;11726;50.122;8.832;2022-07-03T14:42:16;32.70;44.50
23114;DHT22;11726;50.122;8.832;2022-07-03T14:44:43;32.50;43.80
23114;DHT22;11726;50.122;8.832;2022-07-03T14:47:11;32.60;44.60
23114;DHT22;11726;50.122;8.832;2022-07-03T14:49:38;33.00;44.10
23114;DHT22;11726;50.122;8.832;2022-07-03T14:52:05;33.80;43.70
23114;DHT22;11726;50.122;8.832;2022-07-03T14:54:33;33.50;42.40
23114;DHT22;11726;50.122;8.832;2022-07-03T14:57:07;32.60;43.20
23114;DHT22;11726;50.122;8.832;2022-07-03T15:00:12;32.00;44.10
23114;DHT22;11726;50.122;8.832;2022-07-03T15:05:12;31.50;45.60
23114;DHT22;11726;50.122;8.832;2022-07-03T15:07:52;32.60;44.80
23114;DHT22;11726;50.122;8.832;2022-07-03T15:10:22;33.30;42.70
23114;DHT22;11726;50.122;8.832;2022-07-03T15:12:53;33.10;41.50
23114;DHT22;11726;50.122;8.832;2022-07-03T15:15:21;32.30;42.90
23114;DHT22;11726;50.122;8.832;2022-07-03T15:17:50;32.10;44.40
23114;DHT22;11726;50.122;8.832;2022-07-03T15:20:19;31.80;43.10
23114;DHT22;11726;50.122;8.832;2022-07-03T15:22:46;32.70;43.60
23114;DHT22;11726;50.122;8.832;2022-07-03T15:25:17;33.60;41.30
23114;DHT22;11726;50.122;8.832;2022-07-03T15:27:50;33.70;40.10
23114;DHT22;11726;50.122;8.832;2022-07-03T15:30:19;33.00;40.90
23114;DHT22;11726;50.122;8.832;2022-07-03T15:32:47;32.50;41.50
23114;DHT22;11726;50.122;8.832;2022-07-03T15:35:15;32.50;41.30
23114;DHT22;11726;50.122;8.832;2022-07-03T15:38:04;32.00;41.40
23114;DHT22;11726;50.122;8.832;2022-07-03T15:40:35;31.60;41.80
23114;DHT22;11726;50.122;8.832;2022-07-03T15:43:14;31.10;42.60
23114;DHT22;11726;50.122;8.832;2022-07-03T15:46:03;30.90;43.30
23114;DHT22;11726;50.122;8.832;2022-07-03T15:48:43;30.80;42.80
23114;DHT22;11726;50.122;8.832;2022-07-03T15:51:19;30.60;43.70
23114;DHT22;11726;50.122;8.832;2022-07-03T15:53:51;30.70;44.40
23114;DHT22;11726;50.122;8.832;2022-07-03T15:56:34;31.20;43.10
23114;DHT22;11726;50.122;8.832;2022-07-03T15:59:04;31.40;41.70
23114;DHT22;11726;50.122;8.832;2022-07-03T16:01:42;31.10;41.70
23114;DHT22;11726;50.122;8.832;2022-07-03T16:04:38;31.10;42.80
23114;DHT22;11726;50.122;8.832;2022-07-03T16:07:09;31.00;43.20
23114;DHT22;11726;50.122;8.832;2022-07-03T16:09:37;30.90;42.90
23114;DHT22;11726;50.122;8.832;2022-07-03T16:12:04;31.30;42.20
23114;DHT22;11726;50.122;8.832;2022-07-03T16:14:33;32.20;41.90
23114;DHT22;11726;50.122;8.832;2022-07-03T16:17:02;33.10;41.50
23114;DHT22;11726;50.122;8.832;2022-07-03T16:19:31;33.40;39.70
23114;DHT22;11726;50.122;8.832;2022-07-03T16:22:00;33.60;39.20
23114;DHT22;11726;50.122;8.832;2022-07-03T16:24:34;33.50;39.60
23114;DHT22;11726;50.122;8.832;2022-07-03T16:27:02;33.30;39.10
23114;DHT22;11726;50.122;8.832;2022-07-03T16:29:29;33.60;39.10
23114;DHT22;11726;50.122;8.832;2022-07-03T16:31:57;33.00;39.00
23114;DHT22;11726;50.122;8.832;2022-07-03T16:37:51;32.50;39.50
23114;DHT22;11726;50.122;8.832;2022-07-03T16:40:21;33.30;38.80
23114;DHT22;11726;50.122;8.832;2022-07-03T16:42:50;33.30;38.90
23114;DHT22;11726;50.122;8.832;2022-07-03T16:45:19;33.10;39.20
23114;DHT22;11726;50.122;8.832;2022-07-03T16:47:48;32.90;39.10
23114;DHT22;11726;50.122;8.832;2022-07-03T16:50:16;32.30;39.30